sensor_id;sensor_type;location;lat;lon;timestamp;P1;durP1;ratioP1;P2;durP2;ratioP2
20170;SDS011;10245;51.344;6.620;2022-08-07T00:02:06;5.40;;;3.22;;
20170;SDS011;10245;51.344;6.620;2022-08-07T00:04:50;4.63;;;3.17;;
20170;SDS011;10245;51.344;6.620;2022-08-07T00:07:13;5.07;;;3.17;;
20170;SDS011;10245;51.344;6.620;2022-08-07T00:09:39;5.75;;;3.53;;
20170;SDS011;10245;51.344;6.620;2022-08-07T00:12:20;6.13;;;3.28;;
20170;SDS011;10245;51.344;6.620;2022-08-07T00:14:46;4.03;;;3.05;;
20170;SDS011;10245;51.344;6.620;2022-08-07T00:17:09;5.30;;;3.42;;
20170;SDS011;10245;51.344;6.620;2022-08-07T00:19:37;4.43;;;3.58;;
20170;SDS011;10245;51.344;6.620;2022-08-07T00:22:21;3.92;;;3.25;;
20170;SDS011;10245;51.344;6.620;2022-08-07T00:24:56;3.83;;;3.33;;
20170;SDS011;10245;51.344;6.620;2022-08-07T00:27:21;3.97;;;3.20;;
20170;SDS011;10245;51.344;6.620;2022-08-07T00:29:47;5.40;;;3.05;;
20170;SDS011;10245;51.344;6.620;2022-08-07T00:32:11;5.03;;;3.30;;
20170;SDS011;10245;51.344;6.620;2022-08-07T00:34:35;4.80;;;3.60;;
20170;SDS011;10245;51.344;6.620;2022-08-07T00:37:00;5.00;;;3.38;;
20170;SDS011;10245;51.344;6.620;2022-08-07T00:39:26;4.35;;;3.38;;
20170;SDS011;10245;51.344;6.620;2022-08-07T00:41:51;4.80;;;3.25;;
20170;SDS011;10245;51.344;6.620;2022-08-07T00:44:27;4.55;;;3.28;;
20170;SDS011;10245;51.344;6.620;2022-08-07T00:46:53;6.20;;;3.20;;
20170;SDS011;10245;51.344;6.620;2022-08-07T00:49:20;4.00;;;3.00;;
20170;SDS011;10245;51.344;6.620;2022-08-07T00:52:04;4.13;;;3.47;;
20170;SDS011;10245;51.344;6.620;2022-08-07T00:54:30;5.35;;;3.28;;
20170;SDS011;10245;51.344;6.620;2022-08-07T00:56:54;4.20;;;3.03;;
20170;SDS011;10245;51.344;6.620;2022-08-07T00:59:18;4.10;;;3.08;;
20170;SDS011;10245;51.344;6.620;2022-08-07T01:01:57;5.07;;;2.97;;
20170;SDS011;10245;51.344;6.620;2022-08-07T01:04:24;6.85;;;3.22;;
20170;SDS011;10245;51.344;6.620;2022-08-07T01:06:50;4.88;;;3.10;;
20170;SDS011;10245;51.344;6.620;2022-08-07T01:09:16;8.00;;;3.50;;
20170;SDS011;10245;51.344;6.620;2022-08-07T01:12:04;4.13;;;3.28;;
20170;SDS011;10245;51.344;6.620;2022-08-07T01:14:57;5.63;;;3.47;;
20170;SDS011;10245;51.344;6.620;2022-08-07T01:17:26;3.47;;;3.15;;
20170;SDS011;10245;51.344;6.620;2022-08-07T01:19:51;3.60;;;3.28;;
20170;SDS011;10245;51.344;6.620;2022-08-07T01:22:21;5.68;;;3.00;;
20170;SDS011;10245;51.344;6.620;2022-08-07T01:24:50;4.20;;;3.28;;
20170;SDS011;10245;51.344;6.620;2022-08-07T01:27:16;4.03;;;3.20;;
20170;SDS011;10245;51.344;6.620;2022-08-07T01:29:44;4.45;;;3.30;;
20170;SDS011;10245;51.344;6.620;2022-08-07T01:32:11;7.93;;;3.92;;
20170;SDS011;10245;51.344;6.620;2022-08-07T01:34:38;5.68;;;3.47;;
20170;SDS011;10245;51.344;6.620;2022-08-07T01:37:10;8.23;;;3.28;;
20170;SDS011;10245;51.344;6.620;2022-08-07T01:39:42;5.65;;;3.75;;
20170;SDS011;10245;51.344;6.620;2022-08-07T01:42:36;6.05;;;3.53;;
20170;SDS011;10245;51.344;6.620;2022-08-07T01:45:21;4.28;;;3.28;;
20170;SDS011;10245;51.344;6.620;2022-08-07T01:48:03;6.15;;;3.60;;
20170;SDS011;10245;51.344;6.620;2022-08-07T01:50:48;6.32;;;3.60;;
20170;SDS011;10245;51.344;6.620;2022-08-07T01:53:18;5.15;;;3.50;;
20170;SDS011;10245;51.344;6.620;2022-08-07T01:56:06;3.53;;;3.20;;
20170;SDS011;10245;51.344;6.620;2022-08-07T01:58:39;6.32;;;3.75;;
20170;SDS011;10245;51.344;6.620;2022-08-07T02:01:08;4.38;;;3.80;;
20170;SDS011;10245;51.344;6.620;2022-08-07T02:04:00;6.03;;;3.90;;
20170;SDS011;10245;51.344;6.620;2022-08-07T02:06:33;5.68;;;3.72;;
20170;SDS011;10245;51.344;6.620;2022-08-07T02:09:03;6.40;;;3.63;;
20170;SDS011;10245;51.344;6.620;2022-08-07T02:11:34;4.70;;;3.78;;
20170;SDS011;10245;51.344;6.620;2022-08-07T02:14:21;5.32;;;4.18;;
20170;SDS011;10245;51.344;6.620;2022-08-07T02:16:58;4.45;;;3.67;;
20170;SDS011;10245;51.344;6.620;2022-08-07T02:19:23;5.40;;;4.40;;
20170;SDS011;10245;51.344;6.620;2022-08-07T02:22:08;9.80;;;4.53;;
20170;SDS011;10245;51.344;6.620;2022-08-07T02:24:39;6.88;;;3.97;;
20170;SDS011;10245;51.344;6.620;2022-08-07T02:27:09;7.25;;;4.65;;
20170;SDS011;10245;51.344;6.620;2022-08-07T02:29:34;5.60;;;4.50;;
20170;SDS011;10245;51.344;6.620;2022-08-07T02:32:18;5.30;;;4.28;;
20170;SDS011;10245;51.344;6.620;2022-08-07T02:34:44;5.88;;;4.43;;
20170;SDS011;10245;51.344;6.620;2022-08-07T02:37:15;7.30;;;4.50;;
20170;SDS011;10245;51.344;6.620;2022-08-07T02:39:41;7.38;;;4.40;;
20170;SDS011;10245;51.344;6.620;2022-08-07T02:42:29;4.95;;;4.38;;
20170;SDS011;10245;51.344;6.620;2022-08-07T02:44:55;6.63;;;4.43;;
20170;SDS011;10245;51.344;6.620;2022-08-07T02:47:42;7.07;;;4.85;;
20170;SDS011;10245;51.344;6.620;2022-08-07T02:50:12;5.88;;;4.45;;
20170;SDS011;10245;51.344;6.620;2022-08-07T02:52:40;7.80;;;4.97;;
20170;SDS011;10245;51.344;6.620;2022-08-07T02:55:11;6.88;;;4.30;;
20170;SDS011;10245;51.344;6.620;2022-08-07T02:58:01;7.63;;;4.60;;
20170;SDS011;10245;51.344;6.620;2022-08-07T03:00:32;4.97;;;4.47;;
20170;SDS011;10245;51.344;6.620;2022-08-07T03:03:01;5.40;;;4.90;;
20170;SDS011;10245;51.344;6.620;2022-08-07T03:05:38;5.50;;;4.45;;
20170;SDS011;10245;51.344;6.620;2022-08-07T03:08:03;5.32;;;4.10;;
20170;SDS011;10245;51.344;6.620;2022-08-07T03:10:36;7.97;;;4.50;;
20170;SDS011;10245;51.344;6.620;2022-08-07T03:13:12;8.32;;;5.00;;
20170;SDS011;10245;51.344;6.620;2022-08-07T03:15:40;5.18;;;4.68;;
20170;SDS011;10245;51.344;6.620;2022-08-07T03:18:22;18.42;;;5.45;;
20170;SDS011;10245;51.344;6.620;2022-08-07T03:20:58;4.85;;;4.30;;
20170;SDS011;10245;51.344;6.620;2022-08-07T03:23:23;8.25;;;4.72;;
20170;SDS011;10245;51.344;6.620;2022-08-07T03:26:09;7.18;;;5.18;;
20170;SDS011;10245;51.344;6.620;2022-08-07T03:28:46;6.63;;;5.20;;
20170;SDS011;10245;51.344;6.620;2022-08-07T03:31:12;5.45;;;4.85;;
20170;SDS011;10245;51.344;6.620;2022-08-07T03:33:50;5.93;;;5.20;;
20170;SDS011;10245;51.344;6.620;2022-08-07T03:36:22;6.70;;;5.15;;
20170;SDS011;10245;51.344;6.620;2022-08-07T03:38:49;5.80;;;4.40;;
20170;SDS011;10245;51.344;6.620;2022-08-07T03:41:18;6.63;;;5.00;;
20170;SDS011;10245;51.344;6.620;2022-08-07T03:44:04;6.82;;;5.55;;
20170;SDS011;10245;51.344;6.620;2022-08-07T03:46:30;8.32;;;5.05;;
20170;SDS011;10245;51.344;6.620;2022-08-07T03:48:54;5.57;;;4.70;;
20170;SDS011;10245;51.344;6.620;2022-08-07T03:51:29;6.15;;;4.60;;
20170;SDS011;10245;51.344;6.620;2022-08-07T03:54:16;5.53;;;4.82;;
20170;SDS011;10245;51.344;6.620;2022-08-07T03:57:02;5.85;;;4.63;;
20170;SDS011;10245;51.344;6.620;2022-08-07T03:59:30;6.47;;;4.93;;
20170;SDS011;10245;51.344;6.620;2022-08-07T04:01:57;8.32;;;5.40;;
20170;SDS011;10245;51.344;6.620;2022-08-07T04:04:22;7.22;;;4.82;;
20170;SDS011;10245;51.344;6.620;2022-08-07T04:06:51;7.18;;;4.97;;
20170;SDS011;10245;51.344;6.620;2022-08-07T04:09:17;7.07;;;4.88;;
20170;SDS011;10245;51.344;6.620;2022-08-07T04:11:48;6.03;;;5.15;;
20170;SDS011;10245;51.344;6.620;2022-08-07T04:14:35;7.75;;;5.10;;
20170;SDS011;10245;51.344;6.620;2022-08-07T04:17:09;5.90;;;4.72;;
20170;SDS011;10245;51.344;6.620;2022-08-07T04:19:42;6.30;;;5.40;;
20170;SDS011;10245;51.344;6.620;2022-08-07T04:22:17;8.07;;;5.07;;
20170;SDS011;10245;51.344;6.620;2022-08-07T04:24:43;5.60;;;4.82;;
20170;SDS011;10245;51.344;6.620;2022-08-07T04:27:11;6.30;;;5.00;;
20170;SDS011;10245;51.344;6.620;2022-08-07T04:29:44;6.72;;;5.65;;
20170;SDS011;10245;51.344;6.620;2022-08-07T04:32:33;6.70;;;5.53;;
20170;SDS011;10245;51.344;6.620;2022-08-07T04:34:58;8.25;;;6.18;;
20170;SDS011;10245;51.344;6.620;2022-08-07T04:37:26;10.00;;;5.82;;
20170;SDS011;10245;51.344;6.620;2022-08-07T04:40:11;7.07;;;5.47;;
20170;SDS011;10245;51.344;6.620;2022-08-07T04:42:36;6.50;;;5.15;;
20170;SDS011;10245;51.344;6.620;2022-08-07T04:45:06;6.80;;;5.22;;
20170;SDS011;10245;51.344;6.620;2022-08-07T04:47:36;9.27;;;5.63;;
20170;SDS011;10245;51.344;6.620;2022-08-07T04:50:25;8.80;;;6.10;;
20170;SDS011;10245;51.344;6.620;2022-08-07T04:53:09;7.35;;;5.35;;
20170;SDS011;10245;51.344;6.620;2022-08-07T04:56:01;6.65;;;5.63;;
20170;SDS011;10245;51.344;6.620;2022-08-07T04:58:59;6.72;;;5.68;;
20170;SDS011;10245;51.344;6.620;2022-08-07T05:01:52;9.38;;;6.22;;
20170;SDS011;10245;51.344;6.620;2022-08-07T05:04:30;6.70;;;5.63;;
20170;SDS011;10245;51.344;6.620;2022-08-07T05:07:11;7.63;;;5.72;;
20170;SDS011;10245;51.344;6.620;2022-08-07T05:09:48;8.18;;;5.90;;
20170;SDS011;10245;51.344;6.620;2022-08-07T05:12:25;7.82;;;6.05;;
20170;SDS011;10245;51.344;6.620;2022-08-07T05:15:07;6.18;;;5.55;;
20170;SDS011;10245;51.344;6.620;2022-08-07T05:17:49;6.15;;;5.22;;
20170;SDS011;10245;51.344;6.620;2022-08-07T05:20:19;7.97;;;5.25;;
20170;SDS011;10245;51.344;6.620;2022-08-07T05:22:51;7.88;;;4.93;;
20170;SDS011;10245;51.344;6.620;2022-08-07T05:25:22;6.60;;;5.25;;
20170;SDS011;10245;51.344;6.620;2022-08-07T05:28:08;7.55;;;5.95;;
20170;SDS011;10245;51.344;6.620;2022-08-07T05:30:42;8.55;;;5.50;;
20170;SDS011;10245;51.344;6.620;2022-08-07T05:33:09;6.20;;;5.60;;
20170;SDS011;10245;51.344;6.620;2022-08-07T05:35:38;7.55;;;5.88;;
20170;SDS011;10245;51.344;6.620;2022-08-07T05:38:05;7.30;;;5.45;;
20170;SDS011;10245;51.344;6.620;2022-08-07T05:40:32;7.55;;;5.57;;
20170;SDS011;10245;51.344;6.620;2022-08-07T05:43:14;6.25;;;4.90;;
20170;SDS011;10245;51.344;6.620;2022-08-07T05:45:39;6.28;;;5.65;;
20170;SDS011;10245;51.344;6.620;2022-08-07T05:48:11;8.90;;;5.15;;
20170;SDS011;10245;51.344;6.620;2022-08-07T05:50:38;7.47;;;4.90;;
20170;SDS011;10245;51.344;6.620;2022-08-07T05:53:05;7.05;;;5.20;;
20170;SDS011;10245;51.344;6.620;2022-08-07T05:55:49;5.47;;;4.97;;
20170;SDS011;10245;51.344;6.620;2022-08-07T05:58:29;6.35;;;5.10;;
20170;SDS011;10245;51.344;6.620;2022-08-07T06:00:58;5.82;;;4.68;;
20170;SDS011;10245;51.344;6.620;2022-08-07T06:03:27;6.32;;;5.18;;
20170;SDS011;10245;51.344;6.620;2022-08-07T06:06:12;6.82;;;5.05;;
20170;SDS011;10245;51.344;6.620;2022-08-07T06:08:40;8.10;;;4.93;;
20170;SDS011;10245;51.344;6.620;2022-08-07T06:11:08;6.90;;;5.35;;
20170;SDS011;10245;51.344;6.620;2022-08-07T06:13:34;6.97;;;5.00;;
20170;SDS011;10245;51.344;6.620;2022-08-07T06:16:19;5.82;;;5.03;;
20170;SDS011;10245;51.344;6.620;2022-08-07T06:18:51;7.43;;;4.88;;
20170;SDS011;10245;51.344;6.620;2022-08-07T06:21:18;7.82;;;5.10;;
20170;SDS011;10245;51.344;6.620;2022-08-07T06:24:05;6.93;;;4.90;;
20170;SDS011;10245;51.344;6.620;2022-08-07T06:26:50;6.25;;;5.10;;
20170;SDS011;10245;51.344;6.620;2022-08-07T06:29:14;6.57;;;4.93;;
20170;SDS011;10245;51.344;6.620;2022-08-07T06:31:40;6.20;;;4.70;;
20170;SDS011;10245;51.344;6.620;2022-08-07T06:34:16;6.90;;;4.47;;
20170;SDS011;10245;51.344;6.620;2022-08-07T06:36:43;7.50;;;4.57;;
20170;SDS011;10245;51.344;6.620;2022-08-07T06:39:07;6.40;;;4.57;;
20170;SDS011;10245;51.344;6.620;2022-08-07T06:41:54;8.77;;;4.70;;
20170;SDS011;10245;51.344;6.620;2022-08-07T06:44:58;5.85;;;3.90;;
20170;SDS011;10245;51.344;6.620;2022-08-07T06:47:24;8.13;;;4.47;;
20170;SDS011;10245;51.344;6.620;2022-08-07T06:50:01;8.70;;;4.63;;
20170;SDS011;10245;51.344;6.620;2022-08-07T06:52:32;7.03;;;4.70;;
20170;SDS011;10245;51.344;6.620;2022-08-07T06:55:04;11.15;;;5.00;;
20170;SDS011;10245;51.344;6.620;2022-08-07T06:57:52;8.27;;;4.90;;
20170;SDS011;10245;51.344;6.620;2022-08-07T07:00:30;9.93;;;4.93;;
20170;SDS011;10245;51.344;6.620;2022-08-07T07:02:58;9.70;;;5.13;;
20170;SDS011;10245;51.344;6.620;2022-08-07T07:05:33;12.00;;;5.30;;
20170;SDS011;10245;51.344;6.620;2022-08-07T07:08:17;10.40;;;5.40;;
20170;SDS011;10245;51.344;6.620;2022-08-07T07:10:48;8.70;;;5.00;;
20170;SDS011;10245;51.344;6.620;2022-08-07T07:13:21;9.65;;;5.40;;
20170;SDS011;10245;51.344;6.620;2022-08-07T07:16:13;9.68;;;5.57;;
20170;SDS011;10245;51.344;6.620;2022-08-07T07:18:41;10.68;;;5.53;;
20170;SDS011;10245;51.344;6.620;2022-08-07T07:21:11;11.13;;;5.93;;
20170;SDS011;10245;51.344;6.620;2022-08-07T07:23:41;12.73;;;6.20;;
20170;SDS011;10245;51.344;6.620;2022-08-07T07:26:25;11.63;;;5.90;;
20170;SDS011;10245;51.344;6.620;2022-08-07T07:28:58;12.77;;;7.32;;
20170;SDS011;10245;51.344;6.620;2022-08-07T07:31:46;16.50;;;7.30;;
20170;SDS011;10245;51.344;6.620;2022-08-07T07:34:12;14.50;;;6.85;;
20170;SDS011;10245;51.344;6.620;2022-08-07T07:36:53;14.73;;;7.20;;
20170;SDS011;10245;51.344;6.620;2022-08-07T07:39:35;10.45;;;5.40;;
20170;SDS011;10245;51.344;6.620;2022-08-07T07:42:15;12.07;;;6.13;;
20170;SDS011;10245;51.344;6.620;2022-08-07T07:44:42;11.80;;;6.00;;
20170;SDS011;10245;51.344;6.620;2022-08-07T07:47:10;13.23;;;6.10;;
20170;SDS011;10245;51.344;6.620;2022-08-07T07:49:44;11.18;;;4.95;;
20170;SDS011;10245;51.344;6.620;2022-08-07T07:52:31;13.18;;;5.88;;
20170;SDS011;10245;51.344;6.620;2022-08-07T07:54:57;12.18;;;5.78;;
20170;SDS011;10245;51.344;6.620;2022-08-07T07:57:23;9.75;;;5.40;;
20170;SDS011;10245;51.344;6.620;2022-08-07T08:00:09;9.48;;;5.40;;
20170;SDS011;10245;51.344;6.620;2022-08-07T08:02:49;10.50;;;5.50;;
20170;SDS011;10245;51.344;6.620;2022-08-07T08:05:26;10.60;;;5.28;;
20170;SDS011;10245;51.344;6.620;2022-08-07T08:08:05;9.40;;;4.68;;
20170;SDS011;10245;51.344;6.620;2022-08-07T08:10:50;10.23;;;4.93;;
20170;SDS011;10245;51.344;6.620;2022-08-07T08:13:16;8.77;;;5.15;;
20170;SDS011;10245;51.344;6.620;2022-08-07T08:15:42;9.23;;;3.95;;
20170;SDS011;10245;51.344;6.620;2022-08-07T08:18:29;13.63;;;4.10;;
20170;SDS011;10245;51.344;6.620;2022-08-07T08:20:53;10.52;;;4.35;;
20170;SDS011;10245;51.344;6.620;2022-08-07T08:23:18;7.70;;;4.10;;
20170;SDS011;10245;51.344;6.620;2022-08-07T08:26:02;7.28;;;3.25;;
20170;SDS011;10245;51.344;6.620;2022-08-07T08:28:46;7.72;;;2.45;;
20170;SDS011;10245;51.344;6.620;2022-08-07T08:31:15;4.22;;;1.92;;
20170;SDS011;10245;51.344;6.620;2022-08-07T08:34:04;5.35;;;2.30;;
20170;SDS011;10245;51.344;6.620;2022-08-07T08:36:47;3.38;;;1.88;;
20170;SDS011;10245;51.344;6.620;2022-08-07T08:39:19;4.32;;;2.15;;
20170;SDS011;10245;51.344;6.620;2022-08-07T08:42:03;3.03;;;2.17;;
20170;SDS011;10245;51.344;6.620;2022-08-07T08:44:34;4.43;;;2.00;;
20170;SDS011;10245;51.344;6.620;2022-08-07T08:47:06;5.53;;;2.90;;
20170;SDS011;10245;51.344;6.620;2022-08-07T08:49:39;6.82;;;3.50;;
20170;SDS011;10245;51.344;6.620;2022-08-07T08:52:27;7.30;;;3.75;;
20170;SDS011;10245;51.344;6.620;2022-08-07T08:55:18;5.78;;;3.28;;
20170;SDS011;10245;51.344;6.620;2022-08-07T08:58:09;8.25;;;3.53;;
20170;SDS011;10245;51.344;6.620;2022-08-07T09:00:50;7.65;;;3.67;;
20170;SDS011;10245;51.344;6.620;2022-08-07T09:03:23;10.20;;;4.55;;
20170;SDS011;10245;51.344;6.620;2022-08-07T09:06:10;6.68;;;3.85;;
20170;SDS011;10245;51.344;6.620;2022-08-07T09:08:51;4.50;;;2.20;;
20170;SDS011;10245;51.344;6.620;2022-08-07T09:11:33;5.03;;;3.08;;
20170;SDS011;10245;51.344;6.620;2022-08-07T09:14:18;5.47;;;3.15;;
20170;SDS011;10245;51.344;6.620;2022-08-07T09:16:55;8.32;;;3.88;;
20170;SDS011;10245;51.344;6.620;2022-08-07T09:19:34;5.40;;;2.80;;
20170;SDS011;10245;51.344;6.620;2022-08-07T09:22:17;4.63;;;2.50;;
20170;SDS011;10245;51.344;6.620;2022-08-07T09:25:18;5.45;;;2.67;;
20170;SDS011;10245;51.344;6.620;2022-08-07T09:27:51;5.60;;;2.70;;
20170;SDS011;10245;51.344;6.620;2022-08-07T09:30:24;5.15;;;2.33;;
20170;SDS011;10245;51.344;6.620;2022-08-07T09:33:07;2.92;;;1.80;;
20170;SDS011;10245;51.344;6.620;2022-08-07T09:36:05;3.13;;;2.60;;
20170;SDS011;10245;51.344;6.620;2022-08-07T09:38:38;6.63;;;2.70;;
20170;SDS011;10245;51.344;6.620;2022-08-07T09:41:15;5.18;;;2.10;;
20170;SDS011;10245;51.344;6.620;2022-08-07T09:44:08;6.22;;;2.78;;
20170;SDS011;10245;51.344;6.620;2022-08-07T09:47:02;4.50;;;2.30;;
20170;SDS011;10245;51.344;6.620;2022-08-07T09:49:58;2.10;;;1.40;;
20170;SDS011;10245;51.344;6.620;2022-08-07T09:52:41;3.08;;;1.25;;
20170;SDS011;10245;51.344;6.620;2022-08-07T09:55:13;2.17;;;1.25;;
20170;SDS011;10245;51.344;6.620;2022-08-07T09:58:17;2.97;;;0.80;;
20170;SDS011;10245;51.344;6.620;2022-08-07T10:02:12;1.92;;;0.90;;
20170;SDS011;10245;51.344;6.620;2022-08-07T10:05:31;1.92;;;1.10;;
20170;SDS011;10245;51.344;6.620;2022-08-07T10:08:36;1.23;;;1.00;;
20170;SDS011;10245;51.344;6.620;2022-08-07T10:11:21;1.55;;;0.80;;
20170;SDS011;10245;51.344;6.620;2022-08-07T10:14:37;3.53;;;1.50;;
20170;SDS011;10245;51.344;6.620;2022-08-07T10:17:33;3.28;;;1.77;;
20170;SDS011;10245;51.344;6.620;2022-08-07T10:20:31;3.35;;;1.88;;
20170;SDS011;10245;51.344;6.620;2022-08-07T10:23:23;4.15;;;1.70;;
20170;SDS011;10245;51.344;6.620;2022-08-07T10:26:29;3.28;;;1.67;;
20170;SDS011;10245;51.344;6.620;2022-08-07T10:29:22;4.18;;;1.75;;
20170;SDS011;10245;51.344;6.620;2022-08-07T10:32:19;2.53;;;1.42;;
20170;SDS011;10245;51.344;6.620;2022-08-07T10:35:14;2.05;;;1.10;;
20170;SDS011;10245;51.344;6.620;2022-08-07T10:38:11;1.38;;;0.77;;
20170;SDS011;10245;51.344;6.620;2022-08-07T10:41:11;1.75;;;0.77;;
20170;SDS011;10245;51.344;6.620;2022-08-07T10:44:05;2.67;;;0.90;;
20170;SDS011;10245;51.344;6.620;2022-08-07T10:46:50;1.20;;;0.88;;
20170;SDS011;10245;51.344;6.620;2022-08-07T10:49:21;4.85;;;1.00;;
20170;SDS011;10245;51.344;6.620;2022-08-07T10:52:11;2.13;;;1.05;;
20170;SDS011;10245;51.344;6.620;2022-08-07T10:54:55;1.67;;;1.00;;
20170;SDS011;10245;51.344;6.620;2022-08-07T10:57:42;1.17;;;0.90;;
20170;SDS011;10245;51.344;6.620;2022-08-07T11:00:16;2.28;;;1.05;;
20170;SDS011;10245;51.344;6.620;2022-08-07T11:03:02;3.83;;;1.00;;
20170;SDS011;10245;51.344;6.620;2022-08-07T11:05:39;0.90;;;0.80;;
20170;SDS011;10245;51.344;6.620;2022-08-07T11:08:15;1.92;;;0.80;;
20170;SDS011;10245;51.344;6.620;2022-08-07T11:10:51;1.50;;;1.00;;
20170;SDS011;10245;51.344;6.620;2022-08-07T11:13:24;1.30;;;0.80;;
20170;SDS011;10245;51.344;6.620;2022-08-07T11:16:15;2.28;;;0.80;;
20170;SDS011;10245;51.344;6.620;2022-08-07T11:18:52;1.40;;;0.80;;
20170;SDS011;10245;51.344;6.620;2022-08-07T11:21:28;0.90;;;0.80;;
20170;SDS011;10245;51.344;6.620;2022-08-07T11:24:05;1.67;;;0.90;;
20170;SDS011;10245;51.344;6.620;2022-08-07T11:26:38;3.00;;;0.90;;
20170;SDS011;10245;51.344;6.620;2022-08-07T11:29:13;1.48;;;0.90;;
20170;SDS011;10245;51.344;6.620;2022-08-07T11:32:04;2.75;;;1.33;;
20170;SDS011;10245;51.344;6.620;2022-08-07T11:34:35;1.63;;;1.25;;
20170;SDS011;10245;51.344;6.620;2022-08-07T11:37:12;2.28;;;1.08;;
20170;SDS011;10245;51.344;6.620;2022-08-07T11:40:13;1.67;;;1.30;;
20170;SDS011;10245;51.344;6.620;2022-08-07T11:42:50;2.85;;;1.40;;
20170;SDS011;10245;51.344;6.620;2022-08-07T11:45:24;2.80;;;1.70;;
20170;SDS011;10245;51.344;6.620;2022-08-07T11:48:02;2.47;;;1.20;;
20170;SDS011;10245;51.344;6.620;2022-08-07T11:50:58;1.50;;;1.10;;
20170;SDS011;10245;51.344;6.620;2022-08-07T11:59:52;2.22;;;1.13;;
20170;SDS011;10245;51.344;6.620;2022-08-07T12:02:58;3.22;;;0.95;;
20170;SDS011;10245;51.344;6.620;2022-08-07T12:06:09;1.88;;;1.15;;
20170;SDS011;10245;51.344;6.620;2022-08-07T12:09:03;5.20;;;1.42;;
20170;SDS011;10245;51.344;6.620;2022-08-07T12:11:42;2.38;;;1.33;;
20170;SDS011;10245;51.344;6.620;2022-08-07T12:14:33;2.85;;;1.30;;
20170;SDS011;10245;51.344;6.620;2022-08-07T12:17:23;4.07;;;1.35;;
20170;SDS011;10245;51.344;6.620;2022-08-07T12:19:56;1.25;;;1.00;;
20170;SDS011;10245;51.344;6.620;2022-08-07T12:22:48;2.03;;;1.30;;
20170;SDS011;10245;51.344;6.620;2022-08-07T12:26:02;2.55;;;1.10;;
20170;SDS011;10245;51.344;6.620;2022-08-07T12:28:52;2.85;;;1.15;;
20170;SDS011;10245;51.344;6.620;2022-08-07T12:31:27;1.48;;;1.10;;
20170;SDS011;10245;51.344;6.620;2022-08-07T12:34:21;1.60;;;1.33;;
20170;SDS011;10245;51.344;6.620;2022-08-07T12:36:49;2.92;;;1.23;;
20170;SDS011;10245;51.344;6.620;2022-08-07T12:39:19;2.80;;;1.10;;
20170;SDS011;10245;51.344;6.620;2022-08-07T12:42:06;5.65;;;1.23;;
20170;SDS011;10245;51.344;6.620;2022-08-07T12:44:33;1.83;;;1.10;;
20170;SDS011;10245;51.344;6.620;2022-08-07T12:47:08;1.83;;;1.23;;
20170;SDS011;10245;51.344;6.620;2022-08-07T12:49:51;3.65;;;1.27;;
20170;SDS011;10245;51.344;6.620;2022-08-07T12:52:44;4.10;;;1.23;;
20170;SDS011;10245;51.344;6.620;2022-08-07T12:55:16;3.00;;;1.35;;
20170;SDS011;10245;51.344;6.620;2022-08-07T12:58:01;3.47;;;1.50;;
20170;SDS011;10245;51.344;6.620;2022-08-07T13:00:30;1.80;;;1.20;;
20170;SDS011;10245;51.344;6.620;2022-08-07T13:03:13;1.58;;;1.20;;
20170;SDS011;10245;51.344;6.620;2022-08-07T13:06:28;1.20;;;1.10;;
20170;SDS011;10245;51.344;6.620;2022-08-07T13:09:21;3.95;;;1.35;;
20170;SDS011;10245;51.344;6.620;2022-08-07T13:12:23;2.10;;;1.00;;
20170;SDS011;10245;51.344;6.620;2022-08-07T13:14:58;2.42;;;1.10;;
20170;SDS011;10245;51.344;6.620;2022-08-07T13:17:35;1.70;;;1.15;;
20170;SDS011;10245;51.344;6.620;2022-08-07T13:20:14;1.52;;;1.15;;
20170;SDS011;10245;51.344;6.620;2022-08-07T13:22:51;2.20;;;1.20;;
20170;SDS011;10245;51.344;6.620;2022-08-07T13:25:44;3.25;;;1.00;;
20170;SDS011;10245;51.344;6.620;2022-08-07T13:28:23;3.45;;;1.30;;
20170;SDS011;10245;51.344;6.620;2022-08-07T13:30:53;2.35;;;1.30;;
20170;SDS011;10245;51.344;6.620;2022-08-07T13:33:35;2.65;;;1.65;;
20170;SDS011;10245;51.344;6.620;2022-08-07T13:36:31;2.95;;;1.30;;
20170;SDS011;10245;51.344;6.620;2022-08-07T13:39:05;4.13;;;1.20;;
20170;SDS011;10245;51.344;6.620;2022-08-07T13:41:54;4.40;;;1.30;;
20170;SDS011;10245;51.344;6.620;2022-08-07T13:44:21;3.85;;;1.15;;
20170;SDS011;10245;51.344;6.620;2022-08-07T13:46:58;3.08;;;1.05;;
20170;SDS011;10245;51.344;6.620;2022-08-07T13:49:31;1.45;;;1.10;;
20170;SDS011;10245;51.344;6.620;2022-08-07T13:52:17;2.20;;;1.05;;
20170;SDS011;10245;51.344;6.620;2022-08-07T13:54:58;1.77;;;1.10;;
20170;SDS011;10245;51.344;6.620;2022-08-07T13:57:31;2.20;;;1.20;;
20170;SDS011;10245;51.344;6.620;2022-08-07T13:59:59;2.47;;;1.30;;
20170;SDS011;10245;51.344;6.620;2022-08-07T14:02:32;2.72;;;1.23;;
20170;SDS011;10245;51.344;6.620;2022-08-07T14:05:11;1.50;;;1.27;;
20170;SDS011;10245;51.344;6.620;2022-08-07T14:07:38;4.10;;;1.20;;
20170;SDS011;10245;51.344;6.620;2022-08-07T14:10:22;2.35;;;1.40;;
20170;SDS011;10245;51.344;6.620;2022-08-07T14:12:53;1.83;;;1.00;;
20170;SDS011;10245;51.344;6.620;2022-08-07T14:15:28;5.18;;;1.63;;
20170;SDS011;10245;51.344;6.620;2022-08-07T14:18:01;2.47;;;1.00;;
20170;SDS011;10245;51.344;6.620;2022-08-07T14:20:48;2.15;;;1.10;;
20170;SDS011;10245;51.344;6.620;2022-08-07T14:23:19;1.70;;;1.10;;
20170;SDS011;10245;51.344;6.620;2022-08-07T14:26:11;2.42;;;1.15;;
20170;SDS011;10245;51.344;6.620;2022-08-07T14:28:52;2.25;;;0.82;;
20170;SDS011;10245;51.344;6.620;2022-08-07T14:31:29;3.25;;;1.30;;
20170;SDS011;10245;51.344;6.620;2022-08-07T14:34:13;3.58;;;1.30;;
20170;SDS011;10245;51.344;6.620;2022-08-07T14:36:47;1.80;;;1.10;;
20170;SDS011;10245;51.344;6.620;2022-08-07T14:39:16;1.10;;;0.82;;
20170;SDS011;10245;51.344;6.620;2022-08-07T14:42:03;1.52;;;0.90;;
20170;SDS011;10245;51.344;6.620;2022-08-07T14:44:43;3.70;;;1.20;;
20170;SDS011;10245;51.344;6.620;2022-08-07T14:47:12;2.00;;;1.13;;
20170;SDS011;10245;51.344;6.620;2022-08-07T14:49:39;2.05;;;0.90;;
20170;SDS011;10245;51.344;6.620;2022-08-07T14:52:26;1.02;;;0.90;;
20170;SDS011;10245;51.344;6.620;2022-08-07T14:54:54;1.52;;;1.10;;
20170;SDS011;10245;51.344;6.620;2022-08-07T14:57:21;1.80;;;1.30;;
20170;SDS011;10245;51.344;6.620;2022-08-07T15:00:07;3.75;;;1.33;;
20170;SDS011;10245;51.344;6.620;2022-08-07T15:02:43;3.10;;;1.20;;
20170;SDS011;10245;51.344;6.620;2022-08-07T15:05:17;2.78;;;1.20;;
20170;SDS011;10245;51.344;6.620;2022-08-07T15:07:44;3.50;;;1.40;;
20170;SDS011;10245;51.344;6.620;2022-08-07T15:10:16;3.42;;;1.13;;
20170;SDS011;10245;51.344;6.620;2022-08-07T15:12:52;2.58;;;1.20;;
20170;SDS011;10245;51.344;6.620;2022-08-07T15:15:22;2.97;;;1.20;;
20170;SDS011;10245;51.344;6.620;2022-08-07T15:18:00;1.40;;;1.00;;
20170;SDS011;10245;51.344;6.620;2022-08-07T15:20:51;4.22;;;1.10;;
20170;SDS011;10245;51.344;6.620;2022-08-07T15:23:18;3.50;;;1.35;;
20170;SDS011;10245;51.344;6.620;2022-08-07T15:26:08;2.65;;;1.10;;
20170;SDS011;10245;51.344;6.620;2022-08-07T15:28:55;1.33;;;0.90;;
20170;SDS011;10245;51.344;6.620;2022-08-07T15:31:40;2.42;;;1.23;;
20170;SDS011;10245;51.344;6.620;2022-08-07T15:34:25;3.35;;;1.00;;
20170;SDS011;10245;51.344;6.620;2022-08-07T15:36:50;2.67;;;1.10;;
20170;SDS011;10245;51.344;6.620;2022-08-07T15:39:27;1.50;;;1.13;;
20170;SDS011;10245;51.344;6.620;2022-08-07T15:42:34;2.85;;;1.20;;
20170;SDS011;10245;51.344;6.620;2022-08-07T15:45:35;1.23;;;1.02;;
20170;SDS011;10245;51.344;6.620;2022-08-07T15:48:20;3.50;;;1.33;;
20170;SDS011;10245;51.344;6.620;2022-08-07T15:50:52;3.60;;;1.50;;
20170;SDS011;10245;51.344;6.620;2022-08-07T15:53:32;3.33;;;1.17;;
20170;SDS011;10245;51.344;6.620;2022-08-07T15:56:12;1.50;;;1.20;;
20170;SDS011;10245;51.344;6.620;2022-08-07T15:58:39;2.40;;;1.10;;